sensor_id;sensor_type;location;lat;lon;timestamp;temperature;humidity
63202;DHT22;49296;48.188;11.566;2022-12-16T00:00:34;2.41;81.01
63202;DHT22;49296;48.188;11.566;2022-12-16T00:03:00;2.46;80.69
63202;DHT22;49296;48.188;11.566;2022-12-16T00:05:27;2.50;80.56
63202;DHT22;49296;48.188;11.566;2022-12-16T00:07:53;2.55;80.49
63202;DHT22;49296;48.188;11.566;2022-12-16T00:10:22;2.52;80.33
63202;DHT22;49296;48.188;11.566;2022-12-16T00:12:48;2.48;80.54
63202;DHT22;49296;48.188;11.566;2022-12-16T00:15:15;2.41;80.80
63202;DHT22;49296;48.188;11.566;2022-12-16T00:17:44;2.50;80.76
63202;DHT22;49296;48.188;11.566;2022-12-16T00:20:11;2.45;80.86
63202;DHT22;49296;48.188;11.566;2022-12-16T00:22:37;2.56;80.66
63202;DHT22;49296;48.188;11.566;2022-12-16T00:25:04;2.53;80.65
63202;DHT22;49296;48.188;11.566;2022-12-16T00:27:32;2.59;80.51
63202;DHT22;49296;48.188;11.566;2022-12-16T00:29:58;2.63;80.44
63202;DHT22;49296;48.188;11.566;2022-12-16T00:32:25;2.63;80.13
63202;DHT22;49296;48.188;11.566;2022-12-16T00:34:54;2.63;80.02
63202;DHT22;49296;48.188;11.566;2022-12-16T00:37:20;2.45;80.47
63202;DHT22;49296;48.188;11.566;2022-12-16T00:39:46;2.46;80.78
63202;DHT22;49296;48.188;11.566;2022-12-16T00:42:13;2.55;80.37
63202;DHT22;49296;48.188;11.566;2022-12-16T00:44:41;2.58;80.09
63202;DHT22;49296;48.188;11.566;2022-12-16T00:47:07;2.50;80.38
63202;DHT22;49296;48.188;11.566;2022-12-16T00:49:34;2.55;80.27
63202;DHT22;49296;48.188;11.566;2022-12-16T00:52:01;2.59;80.09
63202;DHT22;49296;48.188;11.566;2022-12-16T00:54:27;2.60;80.02
63202;DHT22;49296;48.188;11.566;2022-12-16T00:56:54;2.59;80.14
63202;DHT22;49296;48.188;11.566;2022-12-16T00:59:20;2.58;80.10
63202;DHT22;49296;48.188;11.566;2022-12-16T01:01:48;2.56;79.90
63202;DHT22;49296;48.188;11.566;2022-12-16T01:04:14;2.56;79.85
63202;DHT22;49296;48.188;11.566;2022-12-16T01:06:41;2.52;80.42
63202;DHT22;49296;48.188;11.566;2022-12-16T01:09:07;2.53;80.61
63202;DHT22;49296;48.188;11.566;2022-12-16T01:11:36;2.35;80.85
63202;DHT22;49296;48.188;11.566;2022-12-16T01:14:03;2.50;80.54
63202;DHT22;49296;48.188;11.566;2022-12-16T01:16:30;2.55;80.57
63202;DHT22;49296;48.188;11.566;2022-12-16T01:18:58;2.58;80.36
63202;DHT22;49296;48.188;11.566;2022-12-16T01:21:24;2.56;80.14
63202;DHT22;49296;48.188;11.566;2022-12-16T01:23:51;2.63;79.94
63202;DHT22;49296;48.188;11.566;2022-12-16T01:26:17;2.60;80.11
63202;DHT22;49296;48.188;11.566;2022-12-16T01:28:45;2.55;80.31
63202;DHT22;49296;48.188;11.566;2022-12-16T01:31:12;2.56;80.54
63202;DHT22;49296;48.188;11.566;2022-12-16T01:33:40;2.50;80.87
63202;DHT22;49296;48.188;11.566;2022-12-16T01:36:08;2.45;80.89
63202;DHT22;49296;48.188;11.566;2022-12-16T01:38:34;2.53;80.38
63202;DHT22;49296;48.188;11.566;2022-12-16T01:41:01;2.27;80.97
63202;DHT22;49296;48.188;11.566;2022-12-16T01:43:29;2.28;81.32
63202;DHT22;49296;48.188;11.566;2022-12-16T01:45:57;2.24;81.41
63202;DHT22;49296;48.188;11.566;2022-12-16T01:48:29;2.30;81.17
63202;DHT22;49296;48.188;11.566;2022-12-16T01:50:58;2.30;80.99
63202;DHT22;49296;48.188;11.566;2022-12-16T01:53:27;2.44;80.90
63202;DHT22;49296;48.188;11.566;2022-12-16T01:55:54;2.46;80.64
63202;DHT22;49296;48.188;11.566;2022-12-16T01:58:22;2.35;81.08
63202;DHT22;49296;48.188;11.566;2022-12-16T02:00:51;2.42;80.94
63202;DHT22;49296;48.188;11.566;2022-12-16T02:03:17;2.30;80.90
63202;DHT22;49296;48.188;11.566;2022-12-16T02:05:44;2.31;81.28
63202;DHT22;49296;48.188;11.566;2022-12-16T02:08:12;2.21;81.27
63202;DHT22;49296;48.188;11.566;2022-12-16T02:10:48;2.22;81.42
63202;DHT22;49296;48.188;11.566;2022-12-16T02:13:20;2.42;80.90
63202;DHT22;49296;48.188;11.566;2022-12-16T02:15:50;2.41;80.94
63202;DHT22;49296;48.188;11.566;2022-12-16T02:18:20;2.44;80.68
63202;DHT22;49296;48.188;11.566;2022-12-16T02:29:07;2.48;80.02
63202;DHT22;49296;48.188;11.566;2022-12-16T02:31:42;2.39;80.34
63202;DHT22;49296;48.188;11.566;2022-12-16T02:34:12;2.46;80.42
63202;DHT22;49296;48.188;11.566;2022-12-16T02:36:58;2.35;80.36
63202;DHT22;49296;48.188;11.566;2022-12-16T02:39:30;2.42;80.59
63202;DHT22;49296;48.188;11.566;2022-12-16T02:42:01;2.27;81.08
63202;DHT22;49296;48.188;11.566;2022-12-16T02:44:30;2.34;81.06
63202;DHT22;49296;48.188;11.566;2022-12-16T02:47:00;2.45;80.61
63202;DHT22;49296;48.188;11.566;2022-12-16T02:49:46;2.31;80.87
63202;DHT22;49296;48.188;11.566;2022-12-16T02:52:13;2.07;81.43
63202;DHT22;49296;48.188;11.566;2022-12-16T02:54:40;1.45;82.18
63202;DHT22;49296;48.188;11.566;2022-12-16T02:57:11;1.42;82.52
63202;DHT22;49296;48.188;11.566;2022-12-16T02:59:43;1.37;82.44
63202;DHT22;49296;48.188;11.566;2022-12-16T03:02:19;1.75;81.51
63202;DHT22;49296;48.188;11.566;2022-12-16T03:04:48;1.51;81.69
63202;DHT22;49296;48.188;11.566;2022-12-16T03:07:17;1.35;81.47
63202;DHT22;49296;48.188;11.566;2022-12-16T03:09:45;1.10;82.34
63202;DHT22;49296;48.188;11.566;2022-12-16T03:12:13;1.34;82.38
63202;DHT22;49296;48.188;11.566;2022-12-16T03:14:41;1.49;81.81
63202;DHT22;49296;48.188;11.566;2022-12-16T03:17:08;1.03;81.65
63202;DHT22;49296;48.188;11.566;2022-12-16T03:19:36;0.83;82.75
63202;DHT22;49296;48.188;11.566;2022-12-16T03:22:05;0.99;82.86
63202;DHT22;49296;48.188;11.566;2022-12-16T03:24:33;1.22;82.11
63202;DHT22;49296;48.188;11.566;2022-12-16T03:27:00;1.47;81.30
63202;DHT22;49296;48.188;11.566;2022-12-16T03:29:33;1.41;81.00
63202;DHT22;49296;48.188;11.566;2022-12-16T03:32:02;1.52;80.69
63202;DHT22;49296;48.188;11.566;2022-12-16T03:34:31;1.00;81.12
63202;DHT22;49296;48.188;11.566;2022-12-16T03:37:01;1.16;81.16
63202;DHT22;49296;48.188;11.566;2022-12-16T03:39:29;0.93;81.63
63202;DHT22;49296;48.188;11.566;2022-12-16T03:41:56;0.72;81.53
63202;DHT22;49296;48.188;11.566;2022-12-16T03:44:23;0.68;82.34
63202;DHT22;49296;48.188;11.566;2022-12-16T03:46:50;0.69;82.11
63202;DHT22;49296;48.188;11.566;2022-12-16T03:49:16;0.45;82.61
63202;DHT22;49296;48.188;11.566;2022-12-16T03:51:43;0.41;82.94
63202;DHT22;49296;48.188;11.566;2022-12-16T03:54:11;0.28;83.04
63202;DHT22;49296;48.188;11.566;2022-12-16T03:56:37;0.26;82.78
63202;DHT22;49296;48.188;11.566;2022-12-16T03:59:04;0.40;82.60
63202;DHT22;49296;48.188;11.566;2022-12-16T04:01:30;0.45;82.83
63202;DHT22;49296;48.188;11.566;2022-12-16T04:03:57;0.40;82.78
63202;DHT22;49296;48.188;11.566;2022-12-16T04:06:23;0.64;82.39
63202;DHT22;49296;48.188;11.566;2022-12-16T04:08:49;0.80;81.87
63202;DHT22;49296;48.188;11.566;2022-12-16T04:11:17;0.93;80.89
63202;DHT22;49296;48.188;11.566;2022-12-16T04:14:01;1.13;80.49
63202;DHT22;49296;48.188;11.566;2022-12-16T04:16:45;1.23;79.70
63202;DHT22;49296;48.188;11.566;2022-12-16T04:19:30;1.03;79.66
63202;DHT22;49296;48.188;11.566;2022-12-16T04:22:30;1.06;79.70
63202;DHT22;49296;48.188;11.566;2022-12-16T04:25:14;1.17;79.17
63202;DHT22;49296;48.188;11.566;2022-12-16T04:27:43;0.95;79.18
63202;DHT22;49296;48.188;11.566;2022-12-16T04:30:11;1.10;79.26
63202;DHT22;49296;48.188;11.566;2022-12-16T04:32:48;1.10;79.48
63202;DHT22;49296;48.188;11.566;2022-12-16T04:35:33;0.89;79.14
63202;DHT22;49296;48.188;11.566;2022-12-16T04:38:17;0.83;79.53
63202;DHT22;49296;48.188;11.566;2022-12-16T04:41:01;0.64;80.11
63202;DHT22;49296;48.188;11.566;2022-12-16T04:43:46;0.34;80.63
63202;DHT22;49296;48.188;11.566;2022-12-16T04:46:30;0.64;80.58
63202;DHT22;49296;48.188;11.566;2022-12-16T04:49:14;0.71;80.08
63202;DHT22;49296;48.188;11.566;2022-12-16T04:52:13;0.82;79.64
63202;DHT22;49296;48.188;11.566;2022-12-16T04:54:59;0.75;79.74
63202;DHT22;49296;48.188;11.566;2022-12-16T04:57:43;0.65;80.33
63202;DHT22;49296;48.188;11.566;2022-12-16T05:00:28;0.95;79.64
63202;DHT22;49296;48.188;11.566;2022-12-16T05:03:12;0.97;79.11
63202;DHT22;49296;48.188;11.566;2022-12-16T05:05:56;0.79;79.58
63202;DHT22;49296;48.188;11.566;2022-12-16T05:08:40;0.78;80.01
63202;DHT22;49296;48.188;11.566;2022-12-16T05:11:24;1.04;79.14
63202;DHT22;49296;48.188;11.566;2022-12-16T05:14:08;1.26;78.55
63202;DHT22;49296;48.188;11.566;2022-12-16T05:16:53;1.16;78.79
63202;DHT22;49296;48.188;11.566;2022-12-16T05:19:37;0.86;79.43
63202;DHT22;49296;48.188;11.566;2022-12-16T05:22:21;1.00;79.00
63202;DHT22;49296;48.188;11.566;2022-12-16T05:25:06;0.82;79.05
63202;DHT22;49296;48.188;11.566;2022-12-16T05:27:50;1.00;78.84
63202;DHT22;49296;48.188;11.566;2022-12-16T05:30:34;0.95;78.97
63202;DHT22;49296;48.188;11.566;2022-12-16T05:33:24;0.96;78.76
63202;DHT22;49296;48.188;11.566;2022-12-16T05:36:08;0.68;78.92
63202;DHT22;49296;48.188;11.566;2022-12-16T05:38:52;0.80;78.87
63202;DHT22;49296;48.188;11.566;2022-12-16T05:41:36;0.85;78.51
63202;DHT22;49296;48.188;11.566;2022-12-16T05:44:20;0.34;79.94
63202;DHT22;49296;48.188;11.566;2022-12-16T05:47:04;0.44;79.95
63202;DHT22;49296;48.188;11.566;2022-12-16T05:49:49;0.58;79.61
63202;DHT22;49296;48.188;11.566;2022-12-16T05:52:33;0.64;79.25
63202;DHT22;49296;48.188;11.566;2022-12-16T05:55:18;0.54;79.25
63202;DHT22;49296;48.188;11.566;2022-12-16T05:58:01;0.72;79.25
63202;DHT22;49296;48.188;11.566;2022-12-16T06:00:46;0.54;79.44
63202;DHT22;49296;48.188;11.566;2022-12-16T06:03:29;0.54;79.50
63202;DHT22;49296;48.188;11.566;2022-12-16T06:06:15;0.40;79.35
63202;DHT22;49296;48.188;11.566;2022-12-16T06:08:59;0.45;79.83
63202;DHT22;49296;48.188;11.566;2022-12-16T06:11:43;0.65;79.40
63202;DHT22;49296;48.188;11.566;2022-12-16T06:14:27;0.71;78.87
63202;DHT22;49296;48.188;11.566;2022-12-16T06:17:11;0.58;78.87
63202;DHT22;49296;48.188;11.566;2022-12-16T06:19:55;0.65;78.89
63202;DHT22;49296;48.188;11.566;2022-12-16T06:22:41;0.82;78.94
63202;DHT22;49296;48.188;11.566;2022-12-16T06:25:24;0.95;78.61
63202;DHT22;49296;48.188;11.566;2022-12-16T06:28:08;1.04;78.52
63202;DHT22;49296;48.188;11.566;2022-12-16T06:30:52;1.12;78.18
63202;DHT22;49296;48.188;11.566;2022-12-16T06:33:36;0.97;78.50
63202;DHT22;49296;48.188;11.566;2022-12-16T06:36:21;1.06;78.11
63202;DHT22;49296;48.188;11.566;2022-12-16T06:39:06;0.57;79.10
63202;DHT22;49296;48.188;11.566;2022-12-16T06:41:50;0.41;80.49
63202;DHT22;49296;48.188;11.566;2022-12-16T06:44:34;0.30;80.54
63202;DHT22;49296;48.188;11.566;2022-12-16T06:47:18;0.13;81.41
63202;DHT22;49296;48.188;11.566;2022-12-16T06:50:02;-0.17;81.71
63202;DHT22;49296;48.188;11.566;2022-12-16T06:53:01;-0.35;82.62
63202;DHT22;49296;48.188;11.566;2022-12-16T06:55:46;-0.12;82.44
63202;DHT22;49296;48.188;11.566;2022-12-16T06:58:30;0.18;81.91
63202;DHT22;49296;48.188;11.566;2022-12-16T07:01:14;0.47;80.99
63202;DHT22;49296;48.188;11.566;2022-12-16T07:03:58;0.66;80.35
63202;DHT22;49296;48.188;11.566;2022-12-16T07:06:42;0.68;79.53
63202;DHT22;49296;48.188;11.566;2022-12-16T07:09:26;0.78;79.18
63202;DHT22;49296;48.188;11.566;2022-12-16T07:12:11;0.58;79.17
63202;DHT22;49296;48.188;11.566;2022-12-16T07:15:04;0.38;80.28
63202;DHT22;49296;48.188;11.566;2022-12-16T07:17:49;0.58;80.15
63202;DHT22;49296;48.188;11.566;2022-12-16T07:20:32;0.41;80.42
63202;DHT22;49296;48.188;11.566;2022-12-16T07:23:16;0.38;80.46
63202;DHT22;49296;48.188;11.566;2022-12-16T07:26:00;0.00;81.52
63202;DHT22;49296;48.188;11.566;2022-12-16T07:28:46;0.31;81.42
63202;DHT22;49296;48.188;11.566;2022-12-16T07:31:30;-0.14;81.55
63202;DHT22;49296;48.188;11.566;2022-12-16T07:34:14;-0.21;81.85
63202;DHT22;49296;48.188;11.566;2022-12-16T07:36:58;-0.12;82.18
63202;DHT22;49296;48.188;11.566;2022-12-16T07:39:42;0.06;82.14
63202;DHT22;49296;48.188;11.566;2022-12-16T07:42:26;0.23;81.34
63202;DHT22;49296;48.188;11.566;2022-12-16T07:45:11;0.09;81.66
63202;DHT22;49296;48.188;11.566;2022-12-16T07:47:55;0.36;81.38
63202;DHT22;49296;48.188;11.566;2022-12-16T07:50:39;0.06;82.00
63202;DHT22;49296;48.188;11.566;2022-12-16T07:53:23;0.07;82.28
63202;DHT22;49296;48.188;11.566;2022-12-16T07:56:07;0.30;82.09
63202;DHT22;49296;48.188;11.566;2022-12-16T07:58:51;-0.02;81.75
63202;DHT22;49296;48.188;11.566;2022-12-16T08:01:37;0.07;82.66
63202;DHT22;49296;48.188;11.566;2022-12-16T08:04:21;0.00;82.13
63202;DHT22;49296;48.188;11.566;2022-12-16T08:07:13;0.31;81.73
63202;DHT22;49296;48.188;11.566;2022-12-16T08:09:57;0.31;81.14
63202;DHT22;49296;48.188;11.566;2022-12-16T08:12:41;0.14;80.98
63202;DHT22;49296;48.188;11.566;2022-12-16T08:15:24;0.28;81.24
63202;DHT22;49296;48.188;11.566;2022-12-16T08:18:10;0.27;81.28
63202;DHT22;49296;48.188;11.566;2022-12-16T08:20:54;0.03;81.35
63202;DHT22;49296;48.188;11.566;2022-12-16T08:23:38;0.36;80.82
63202;DHT22;49296;48.188;11.566;2022-12-16T08:26:22;0.52;80.37
63202;DHT22;49296;48.188;11.566;2022-12-16T08:29:06;0.38;80.31
63202;DHT22;49296;48.188;11.566;2022-12-16T08:31:50;0.30;80.45
63202;DHT22;49296;48.188;11.566;2022-12-16T08:34:35;0.21;80.79
63202;DHT22;49296;48.188;11.566;2022-12-16T08:37:15;0.30;80.97
63202;DHT22;49296;48.188;11.566;2022-12-16T08:39:59;0.17;80.45
63202;DHT22;49296;48.188;11.566;2022-12-16T08:42:43;0.17;81.33
63202;DHT22;49296;48.188;11.566;2022-12-16T08:45:27;0.26;80.92
63202;DHT22;49296;48.188;11.566;2022-12-16T08:48:11;0.31;80.20
63202;DHT22;49296;48.188;11.566;2022-12-16T08:50:56;-0.15;81.11
63202;DHT22;49296;48.188;11.566;2022-12-16T08:53:41;-0.14;81.48
63202;DHT22;49296;48.188;11.566;2022-12-16T08:56:25;-0.22;81.68
63202;DHT22;49296;48.188;11.566;2022-12-16T08:59:09;0.00;81.83
63202;DHT22;49296;48.188;11.566;2022-12-16T09:01:50;-0.17;81.50
63202;DHT22;49296;48.188;11.566;2022-12-16T09:04:45;0.21;81.31
63202;DHT22;49296;48.188;11.566;2022-12-16T09:07:31;0.41;80.69
63202;DHT22;49296;48.188;11.566;2022-12-16T09:10:15;0.45;79.74
63202;DHT22;49296;48.188;11.566;2022-12-16T09:13:06;0.27;79.67
63202;DHT22;49296;48.188;11.566;2022-12-16T09:15:50;0.26;80.73
63202;DHT22;49296;48.188;11.566;2022-12-16T09:18:34;0.64;80.09
63202;DHT22;49296;48.188;11.566;2022-12-16T09:21:18;0.51;79.84
63202;DHT22;49296;48.188;11.566;2022-12-16T09:24:06;0.62;79.81
63202;DHT22;49296;48.188;11.566;2022-12-16T09:26:49;0.51;79.91
63202;DHT22;49296;48.188;11.566;2022-12-16T09:29:33;0.48;79.85
63202;DHT22;49296;48.188;11.566;2022-12-16T09:32:17;0.62;79.98
63202;DHT22;49296;48.188;11.566;2022-12-16T09:35:02;0.61;80.02
63202;DHT22;49296;48.188;11.566;2022-12-16T09:37:46;0.37;80.62
63202;DHT22;49296;48.188;11.566;2022-12-16T09:40:31;0.07;81.28
63202;DHT22;49296;48.188;11.566;2022-12-16T09:43:22;0.06;82.18
63202;DHT22;49296;48.188;11.566;2022-12-16T09:46:10;0.38;81.72
63202;DHT22;49296;48.188;11.566;2022-12-16T09:48:57;0.40;81.59
63202;DHT22;49296;48.188;11.566;2022-12-16T09:51:44;0.28;81.74
63202;DHT22;49296;48.188;11.566;2022-12-16T09:54:28;0.64;80.79
63202;DHT22;49296;48.188;11.566;2022-12-16T09:57:15;0.69;80.66
63202;DHT22;49296;48.188;11.566;2022-12-16T10:00:00;0.79;80.06
63202;DHT22;49296;48.188;11.566;2022-12-16T10:02:45;0.55;80.58
63202;DHT22;49296;48.188;11.566;2022-12-16T10:05:32;0.71;80.37
63202;DHT22;49296;48.188;11.566;2022-12-16T10:08:21;0.13;81.07
63202;DHT22;49296;48.188;11.566;2022-12-16T10:11:10;0.16;81.46
63202;DHT22;49296;48.188;11.566;2022-12-16T10:13:57;0.13;81.11
63202;DHT22;49296;48.188;11.566;2022-12-16T10:16:46;-0.12;82.10
63202;DHT22;49296;48.188;11.566;2022-12-16T10:19:33;-0.33;82.85
63202;DHT22;49296;48.188;11.566;2022-12-16T10:22:20;-0.21;82.31
63202;DHT22;49296;48.188;11.566;2022-12-16T10:25:06;-0.32;82.18
63202;DHT22;49296;48.188;11.566;2022-12-16T10:27:56;0.06;81.61
63202;DHT22;49296;48.188;11.566;2022-12-16T10:30:44;0.06;80.83
63202;DHT22;49296;48.188;11.566;2022-12-16T10:33:28;-0.15;81.17
63202;DHT22;49296;48.188;11.566;2022-12-16T10:36:13;-0.54;82.27
63202;DHT22;49296;48.188;11.566;2022-12-16T10:38:59;-0.52;82.33
63202;DHT22;49296;48.188;11.566;2022-12-16T10:41:44;-0.54;82.37
63202;DHT22;49296;48.188;11.566;2022-12-16T10:44:32;-0.62;82.18
63202;DHT22;49296;48.188;11.566;2022-12-16T10:47:19;-0.45;82.49
63202;DHT22;49296;48.188;11.566;2022-12-16T10:50:03;-0.62;82.52
63202;DHT22;49296;48.188;11.566;2022-12-16T10:52:51;-0.40;82.24
63202;DHT22;49296;48.188;11.566;2022-12-16T10:55:38;-0.33;82.00
63202;DHT22;49296;48.188;11.566;2022-12-16T10:58:28;-0.37;81.79
63202;DHT22;49296;48.188;11.566;2022-12-16T11:01:20;-0.29;82.31
63202;DHT22;49296;48.188;11.566;2022-12-16T11:04:10;-0.26;82.03
63202;DHT22;49296;48.188;11.566;2022-12-16T11:07:21;-0.19;81.27
63202;DHT22;49296;48.188;11.566;2022-12-16T11:10:20;-0.32;81.55
63202;DHT22;49296;48.188;11.566;2022-12-16T11:13:10;-0.29;81.55
63202;DHT22;49296;48.188;11.566;2022-12-16T11:16:04;-0.30;81.21
63202;DHT22;49296;48.188;11.566;2022-12-16T11:21:28;-0.19;80.74
63202;DHT22;49296;48.188;11.566;2022-12-16T11:24:14;-0.23;81.51
63202;DHT22;49296;48.188;11.566;2022-12-16T11:26:59;-0.21;81.28
63202;DHT22;49296;48.188;11.566;2022-12-16T11:29:51;-0.15;80.67
63202;DHT22;49296;48.188;11.566;2022-12-16T11:32:36;-0.14;81.22
63202;DHT22;49296;48.188;11.566;2022-12-16T11:35:21;-0.04;81.15
63202;DHT22;49296;48.188;11.566;2022-12-16T11:38:10;-0.19;81.17
63202;DHT22;49296;48.188;11.566;2022-12-16T11:40:55;-0.21;81.34
63202;DHT22;49296;48.188;11.566;2022-12-16T11:43:40;-0.19;81.51
63202;DHT22;49296;48.188;11.566;2022-12-16T11:46:28;-0.32;81.42
63202;DHT22;49296;48.188;11.566;2022-12-16T11:49:13;-0.12;81.34
63202;DHT22;49296;48.188;11.566;2022-12-16T11:51:59;-0.21;81.28
63202;DHT22;49296;48.188;11.566;2022-12-16T11:54:49;-0.04;81.37
63202;DHT22;49296;48.188;11.566;2022-12-16T11:57:37;-0.28;81.57
63202;DHT22;49296;48.188;11.566;2022-12-16T12:00:23;-0.18;81.89
63202;DHT22;49296;48.188;11.566;2022-12-16T12:03:08;-0.37;81.81
63202;DHT22;49296;48.188;11.566;2022-12-16T12:05:55;-0.21;81.42
63202;DHT22;49296;48.188;11.566;2022-12-16T12:08:45;-0.17;80.79
63202;DHT22;49296;48.188;11.566;2022-12-16T12:11:33;0.17;80.50
63202;DHT22;49296;48.188;11.566;2022-12-16T12:14:19;-0.15;80.76
63202;DHT22;49296;48.188;11.566;2022-12-16T12:17:19;-0.08;80.87
63202;DHT22;49296;48.188;11.566;2022-12-16T12:20:14;-0.25;81.45
63202;DHT22;49296;48.188;11.566;2022-12-16T12:23:05;-0.15;80.87
63202;DHT22;49296;48.188;11.566;2022-12-16T12:25:51;0.00;81.29
63202;DHT22;49296;48.188;11.566;2022-12-16T12:28:42;-0.08;80.76
63202;DHT22;49296;48.188;11.566;2022-12-16T12:31:31;-0.04;80.40
63202;DHT22;49296;48.188;11.566;2022-12-16T12:34:20;0.11;80.25
63202;DHT22;49296;48.188;11.566;2022-12-16T12:37:06;0.09;79.52
63202;DHT22;49296;48.188;11.566;2022-12-16T12:39:53;0.37;79.49
63202;DHT22;49296;48.188;11.566;2022-12-16T12:42:40;0.05;79.23
63202;DHT22;49296;48.188;11.566;2022-12-16T12:45:40;0.03;79.73
63202;DHT22;49296;48.188;11.566;2022-12-16T12:48:27;-0.29;80.25
63202;DHT22;49296;48.188;11.566;2022-12-16T12:51:14;-0.02;80.66
63202;DHT22;49296;48.188;11.566;2022-12-16T12:54:01;-0.26;80.21
63202;DHT22;49296;48.188;11.566;2022-12-16T12:56:48;-0.29;81.59
63202;DHT22;49296;48.188;11.566;2022-12-16T12:59:36;-0.17;81.48
63202;DHT22;49296;48.188;11.566;2022-12-16T13:02:25;-0.26;80.99
63202;DHT22;49296;48.188;11.566;2022-12-16T13:05:12;-0.50;81.78
63202;DHT22;49296;48.188;11.566;2022-12-16T13:11:10;-0.52;82.16
63202;DHT22;49296;48.188;11.566;2022-12-16T13:13:54;-0.64;82.32
63202;DHT22;49296;48.188;11.566;2022-12-16T13:19:44;-0.56;82.11
63202;DHT22;49296;48.188;11.566;2022-12-16T13:22:35;-0.53;82.62
63202;DHT22;49296;48.188;11.566;2022-12-16T13:25:28;-0.45;82.37
63202;DHT22;49296;48.188;11.566;2022-12-16T13:28:18;-0.56;82.34
63202;DHT22;49296;48.188;11.566;2022-12-16T13:31:03;-0.29;81.63
63202;DHT22;49296;48.188;11.566;2022-12-16T13:33:49;-0.18;81.29
63202;DHT22;49296;48.188;11.566;2022-12-16T13:36:35;-0.59;81.44
63202;DHT22;49296;48.188;11.566;2022-12-16T13:39:34;-0.73;82.08
63202;DHT22;49296;48.188;11.566;2022-12-16T13:42:46;-0.60;81.73
63202;DHT22;49296;48.188;11.566;2022-12-16T13:45:34;-0.52;81.54
63202;DHT22;49296;48.188;11.566;2022-12-16T13:48:25;-0.35;81.34
63202;DHT22;49296;48.188;11.566;2022-12-16T13:51:21;-0.40;80.93
63202;DHT22;49296;48.188;11.566;2022-12-16T13:54:39;-0.59;81.45
63202;DHT22;49296;48.188;11.566;2022-12-16T13:57:24;-0.52;81.72
63202;DHT22;49296;48.188;11.566;2022-12-16T14:00:15;-0.60;81.35
63202;DHT22;49296;48.188;11.566;2022-12-16T14:03:00;-0.57;80.73
63202;DHT22;49296;48.188;11.566;2022-12-16T14:05:46;-0.77;81.12
63202;DHT22;49296;48.188;11.566;2022-12-16T14:08:31;-0.99;81.92
63202;DHT22;49296;48.188;11.566;2022-12-16T14:11:18;-1.12;82.04
63202;DHT22;49296;48.188;11.566;2022-12-16T14:14:07;-1.12;82.22
63202;DHT22;49296;48.188;11.566;2022-12-16T14:16:54;-1.12;82.26
63202;DHT22;49296;48.188;11.566;2022-12-16T14:19:45;-0.99;82.42
63202;DHT22;49296;48.188;11.566;2022-12-16T14:22:37;-0.85;81.94
63202;DHT22;49296;48.188;11.566;2022-12-16T14:25:23;-0.70;81.50
63202;DHT22;49296;48.188;11.566;2022-12-16T14:28:13;-0.83;80.99
63202;DHT22;49296;48.188;11.566;2022-12-16T14:31:02;-0.62;81.12
63202;DHT22;49296;48.188;11.566;2022-12-16T14:33:52;-0.62;80.82
63202;DHT22;49296;48.188;11.566;2022-12-16T14:36:37;-0.80;81.33
63202;DHT22;49296;48.188;11.566;2022-12-16T14:39:26;-0.97;81.95
63202;DHT22;49296;48.188;11.566;2022-12-16T14:42:14;-1.15;82.73
63202;DHT22;49296;48.188;11.566;2022-12-16T14:45:00;-1.32;82.62
63202;DHT22;49296;48.188;11.566;2022-12-16T14:47:44;-1.15;82.98
63202;DHT22;49296;48.188;11.566;2022-12-16T14:50:28;-1.25;82.62
63202;DHT22;49296;48.188;11.566;2022-12-16T14:53:16;-1.32;82.70
63202;DHT22;49296;48.188;11.566;2022-12-16T14:56:16;-1.19;82.58
63202;DHT22;49296;48.188;11.566;2022-12-16T14:59:07;-1.09;82.28
63202;DHT22;49296;48.188;11.566;2022-12-16T15:01:53;-0.99;81.67
63202;DHT22;49296;48.188;11.566;2022-12-16T15:04:37;-1.22;82.19
63202;DHT22;49296;48.188;11.566;2022-12-16T15:07:21;-1.11;82.02
63202;DHT22;49296;48.188;11.566;2022-12-16T15:10:05;-1.15;82.00
63202;DHT22;49296;48.188;11.566;2022-12-16T15:12:49;-1.15;82.27
63202;DHT22;49296;48.188;11.566;2022-12-16T15:15:30;-1.05;82.15
63202;DHT22;49296;48.188;11.566;2022-12-16T15:18:17;-1.38;82.77
63202;DHT22;49296;48.188;11.566;2022-12-16T15:21:01;-1.33;82.60
63202;DHT22;49296;48.188;11.566;2022-12-16T15:23:45;-1.28;82.73
63202;DHT22;49296;48.188;11.566;2022-12-16T15:26:29;-1.25;82.81
63202;DHT22;49296;48.188;11.566;2022-12-16T15:29:26;-1.24;83.02
63202;DHT22;49296;48.188;11.566;2022-12-16T15:32:30;-1.13;82.82
63202;DHT22;49296;48.188;11.566;2022-12-16T15:35:26;-1.39;83.00
63202;DHT22;49296;48.188;11.566;2022-12-16T15:38:15;-1.40;83.20
63202;DHT22;49296;48.188;11.566;2022-12-16T15:41:01;-1.31;83.10
63202;DHT22;49296;48.188;11.566;2022-12-16T15:43:45;-1.28;83.15
63202;DHT22;49296;48.188;11.566;2022-12-16T15:46:30;-1.35;83.17
63202;DHT22;49296;48.188;11.566;2022-12-16T15:49:18;-1.13;83.10
63202;DHT22;49296;48.188;11.566;2022-12-16T15:52:16;-1.16;82.67
63202;DHT22;49296;48.188;11.566;2022-12-16T15:58:08;-1.07;82.82
63202;DHT22;49296;48.188;11.566;2022-12-16T16:00:55;-0.94;83.04
63202;DHT22;49296;48.188;11.566;2022-12-16T16:03:39;-0.66;81.98
63202;DHT22;49296;48.188;11.566;2022-12-16T16:06:23;-0.90;81.55
63202;DHT22;49296;48.188;11.566;2022-12-16T16:09:12;-1.16;82.37
63202;DHT22;49296;48.188;11.566;2022-12-16T16:11:56;-1.25;83.09
63202;DHT22;49296;48.188;11.566;2022-12-16T16:14:40;-1.44;83.99
63202;DHT22;49296;48.188;11.566;2022-12-16T16:17:24;-1.31;83.54
63202;DHT22;49296;48.188;11.566;2022-12-16T16:20:08;-1.35;83.79
63202;DHT22;49296;48.188;11.566;2022-12-16T16:22:56;-1.13;83.75
63202;DHT22;49296;48.188;11.566;2022-12-16T16:25:42;-1.02;83.19
63202;DHT22;49296;48.188;11.566;2022-12-16T16:28:26;-1.13;83.26
63202;DHT22;49296;48.188;11.566;2022-12-16T16:31:10;-1.11;83.15
63202;DHT22;49296;48.188;11.566;2022-12-16T16:33:54;-1.09;83.00
63202;DHT22;49296;48.188;11.566;2022-12-16T16:36:38;-1.15;83.28
63202;DHT22;49296;48.188;11.566;2022-12-16T16:39:22;-1.40;83.94
63202;DHT22;49296;48.188;11.566;2022-12-16T16:42:08;-1.28;83.92
63202;DHT22;49296;48.188;11.566;2022-12-16T16:44:52;-1.20;83.64
63202;DHT22;49296;48.188;11.566;2022-12-16T16:47:36;-1.07;83.39
63202;DHT22;49296;48.188;11.566;2022-12-16T16:50:20;-1.20;83.74
63202;DHT22;49296;48.188;11.566;2022-12-16T16:53:04;-1.40;84.02
63202;DHT22;49296;48.188;11.566;2022-12-16T16:55:49;-1.19;84.08
63202;DHT22;49296;48.188;11.566;2022-12-16T16:58:37;-1.25;83.73
63202;DHT22;49296;48.188;11.566;2022-12-16T17:01:21;-1.24;83.67
63202;DHT22;49296;48.188;11.566;2022-12-16T17:04:04;-1.25;83.67
63202;DHT22;49296;48.188;11.566;2022-12-16T17:06:48;-1.31;84.12
63202;DHT22;49296;48.188;11.566;2022-12-16T17:09:33;-1.32;84.26
63202;DHT22;49296;48.188;11.566;2022-12-16T17:12:17;-1.24;84.29
63202;DHT22;49296;48.188;11.566;2022-12-16T17:15:08;-1.18;84.31